01:11
Airports
History
Links
Donate
Help keep this website running!
PayPal
Bitcoin
This page is community maintained. The information is intended for PC simulator navigation or reference.
Always use approved charts for navigation.
11N
Candlelight FarmsUpdated 21-May-2014
Candlelight Farms (11N)
New Milford, Connecticut, United States (6776)
4
Lat/Lng:41° 34' 9" N / 73° 27' 43.5" W
41.569167 / -73.462083
Elevation:675'ft / 206mMSL
Declination:W014°
ID / ICAO:11N
FAA:11N
Runways:1
Longest:(16-34) 885.1m / 2,904ft Grass
Distance To
Airport ID:
Nearby VORs <50NM
Nearby NDBs
Nearby WeatherUpdated 08-24-17 00:53 GMT
Nearby weather at KDXR, Danbury Muni located 13.7 nautical miles from 11N
Altimeter: 29.89
Visibility: 10.0 statute miles
Wind: 3 knots (220°)
Temp: 18°c 64°f
Humidity: 77.5%

METAR: KDXR 240053Z 22003KT 10SM CLR 18/14 A2989 RMK AO2 SLP117 T01830144

(Powered by phpweather)
Runway 16 / 34
Dimensions:885.1 x 15.2m 2904' x 50'ft
Surface:Grass
Runway 16 [A]Runway 34 [B]
Heading:160°MH  146°TH340°MH   326°TH
Lat:
Lng:
41° 34' 12.21"N
73° 28' 9.14"W
41° 33' 48.47"N
73° 27' 47.74"W
User Notes and Comments
Google Map
Nearby Airports
(R) Docktors Field 3.4 NM
CT51 SE 136°
4 Canterbury Farm 9.0 NM
CT60 ESE 117°
(R) Good Hill Farm 10.4 NM
CT59 E 96°
(R) Long View Landing 11.5 NM
CT66 NE 53°
(C) Danbury Muni 13.7 NM
KDXR (WX) S 184°
(U) Stormville 14.0 NM
N69 W 272°
(R) Sherman Field 15.3 NM
1NY5 WNW 288°
VFR Chart
Flight Planning at SkyVector.com